This is the latest recevied weather packets stored in our database for station/object W4CKA. If no packets are shown the sender has not sent any weather packets the latest 10 day(s).
| Time | Temp. | Humidity | Pressure | Rain* | Wind** | Luminosity | Snow |
|---|---|---|---|---|---|---|---|
| 1787749097 | 17.78° C | 94% | 1061.2 hPa | 0 mm | - | 146 W/m² | - |
| 1787748498 | 17.22° C | 94% | 1061.2 hPa | 0 mm | - | 81 W/m² | - |
| 1787747894 | 17.22° C | 94% | 1061.3 hPa | 0 mm | - | 142 W/m² | - |
| 1787747289 | 16.11° C | 97% | 1061.2 hPa | 0 mm | - | 87 W/m² | - |
| 1787746686 | 15.56° C | 98% | 1061.2 hPa | 0 mm | - | 42 W/m² | - |
| 1787746084 | 15° C | 99% | 1061 hPa | 0 mm | - | 38 W/m² | - |
| 1787745482 | 15° C | 99% | 1061 hPa | 0 mm | - | 32 W/m² | - |
| 1787744879 | 15° C | 99% | 1061 hPa | 0 mm | - | 26 W/m² | - |
| 1787744276 | 15° C | 99% | 1061 hPa | 0 mm | - | 21 W/m² | - |
| 1787743672 | 15° C | 99% | 1060.9 hPa | 0 mm | - | 15 W/m² | - |
| 1787743069 | 15° C | 99% | 1060.7 hPa | 0 mm | - | 9 W/m² | - |
| 1787742465 | 14.44° C | 99% | 1060.7 hPa | 0 mm | - | 2 W/m² | - |
| 1787741863 | 14.44° C | 99% | 1060.8 hPa | 0 mm | - | 0 W/m² | - |
| 1787741258 | 15° C | 99% | 1060.6 hPa | 0 mm | - | 0 W/m² | - |
| 1787740657 | 14.44° C | 99% | 1060.8 hPa | 0 mm | - | 0 W/m² | - |
| 1787740053 | 14.44° C | 99% | 1060.7 hPa | 0 mm | - | 0 W/m² | - |
| 1787739451 | 14.44° C | 99% | 1060.4 hPa | 0 mm | - | 0 W/m² | - |
| 1787738848 | 14.44° C | 99% | 1060.1 hPa | 0 mm | - | 0 W/m² | - |
| 1787738247 | 15° C | 99% | 1060.3 hPa | 0 mm | - | 0 W/m² | - |
| 1787737645 | 15° C | 99% | 1060.2 hPa | 0 mm | - | 0 W/m² | - |
| 1787737045 | 15° C | 99% | 1060.1 hPa | 0 mm | - | 0 W/m² | - |
| 1787736443 | 15° C | 99% | 1060.1 hPa | 0 mm | - | 0 W/m² | - |
| 1787735840 | 15° C | 99% | 1060.2 hPa | 0 mm | - | 0 W/m² | - |
| 1787735235 | 15° C | 99% | 1060.1 hPa | 0 mm | - | 0 W/m² | - |
| 1787734629 | 15° C | 99% | 1060 hPa | 0 mm | - | 0 W/m² | - |
* Rain latest hour (hover to see other rain measurements)
** Current wind speed in m/s (hover to see current wind gust speed)